sensor_id;sensor_type;location;lat;lon;timestamp;temperature;humidity
45207;DHT22;30950;53.086;21.576;2023-07-22T00:01:23;17.10;95.80
45207;DHT22;30950;53.086;21.576;2023-07-22T00:03:50;17.10;96.10
45207;DHT22;30950;53.086;21.576;2023-07-22T00:06:17;17.10;96.10
45207;DHT22;30950;53.086;21.576;2023-07-22T00:08:45;17.10;96.30
45207;DHT22;30950;53.086;21.576;2023-07-22T00:11:12;17.20;96.50
45207;DHT22;30950;53.086;21.576;2023-07-22T00:13:40;17.20;96.70
45207;DHT22;30950;53.086;21.576;2023-07-22T00:16:07;17.20;96.90
45207;DHT22;30950;53.086;21.576;2023-07-22T00:18:35;17.20;97.10
45207;DHT22;30950;53.086;21.576;2023-07-22T00:21:03;17.30;97.10
45207;DHT22;30950;53.086;21.576;2023-07-22T00:23:31;17.30;97.30
45207;DHT22;30950;53.086;21.576;2023-07-22T00:25:58;17.30;97.50
45207;DHT22;30950;53.086;21.576;2023-07-22T00:28:26;17.30;97.70
45207;DHT22;30950;53.086;21.576;2023-07-22T00:30:53;17.30;98.00
45207;DHT22;30950;53.086;21.576;2023-07-22T00:33:21;17.30;98.40
45207;DHT22;30950;53.086;21.576;2023-07-22T00:35:49;17.30;98.30
45207;DHT22;30950;53.086;21.576;2023-07-22T00:38:20;17.30;98.50
45207;DHT22;30950;53.086;21.576;2023-07-22T00:40:47;17.30;98.60
45207;DHT22;30950;53.086;21.576;2023-07-22T00:43:14;17.30;98.80
45207;DHT22;30950;53.086;21.576;2023-07-22T00:45:43;17.30;99.00
45207;DHT22;30950;53.086;21.576;2023-07-22T00:48:11;17.30;99.30
45207;DHT22;30950;53.086;21.576;2023-07-22T00:50:40;17.40;99.60
45207;DHT22;30950;53.086;21.576;2023-07-22T00:53:08;17.30;99.80
45207;DHT22;30950;53.086;21.576;2023-07-22T00:55:37;17.30;99.90
45207;DHT22;30950;53.086;21.576;2023-07-22T00:58:07;17.30;99.90
45207;DHT22;30950;53.086;21.576;2023-07-22T01:00:34;17.40;99.90
45207;DHT22;30950;53.086;21.576;2023-07-22T01:03:02;17.30;99.90
45207;DHT22;30950;53.086;21.576;2023-07-22T01:05:35;17.30;99.90
45207;DHT22;30950;53.086;21.576;2023-07-22T01:08:07;17.30;99.90
45207;DHT22;30950;53.086;21.576;2023-07-22T01:10:34;17.30;99.90
45207;DHT22;30950;53.086;21.576;2023-07-22T01:13:02;17.30;99.90
45207;DHT22;30950;53.086;21.576;2023-07-22T01:15:29;17.30;99.90
45207;DHT22;30950;53.086;21.576;2023-07-22T01:17:57;17.30;99.90
45207;DHT22;30950;53.086;21.576;2023-07-22T01:20:30;17.30;99.90
45207;DHT22;30950;53.086;21.576;2023-07-22T01:22:58;17.30;99.90
45207;DHT22;30950;53.086;21.576;2023-07-22T01:25:26;17.40;99.90
45207;DHT22;30950;53.086;21.576;2023-07-22T01:27:57;17.40;99.90
45207;DHT22;30950;53.086;21.576;2023-07-22T01:30:24;17.40;99.90
45207;DHT22;30950;53.086;21.576;2023-07-22T01:32:55;17.40;99.90
45207;DHT22;30950;53.086;21.576;2023-07-22T01:35:22;17.40;99.90
45207;DHT22;30950;53.086;21.576;2023-07-22T01:37:50;17.40;99.90
45207;DHT22;30950;53.086;21.576;2023-07-22T01:40:17;17.40;99.90
45207;DHT22;30950;53.086;21.576;2023-07-22T01:42:45;17.40;99.90
45207;DHT22;30950;53.086;21.576;2023-07-22T01:45:13;17.30;99.90
45207;DHT22;30950;53.086;21.576;2023-07-22T01:47:40;17.30;99.90
45207;DHT22;30950;53.086;21.576;2023-07-22T01:50:08;17.40;99.90
45207;DHT22;30950;53.086;21.576;2023-07-22T01:52:37;17.30;99.90
45207;DHT22;30950;53.086;21.576;2023-07-22T01:55:05;17.30;99.90
45207;DHT22;30950;53.086;21.576;2023-07-22T01:57:33;17.40;99.90
45207;DHT22;30950;53.086;21.576;2023-07-22T02:00:02;17.40;99.90
45207;DHT22;30950;53.086;21.576;2023-07-22T02:02:38;17.40;99.90
45207;DHT22;30950;53.086;21.576;2023-07-22T02:05:07;17.40;99.90
45207;DHT22;30950;53.086;21.576;2023-07-22T02:07:36;17.40;99.90
45207;DHT22;30950;53.086;21.576;2023-07-22T02:10:04;17.40;99.90
45207;DHT22;30950;53.086;21.576;2023-07-22T02:12:33;17.40;99.90
45207;DHT22;30950;53.086;21.576;2023-07-22T02:15:00;17.40;99.90
45207;DHT22;30950;53.086;21.576;2023-07-22T02:17:29;17.40;99.90
45207;DHT22;30950;53.086;21.576;2023-07-22T02:19:58;17.40;99.90
45207;DHT22;30950;53.086;21.576;2023-07-22T02:22:26;17.30;99.90
45207;DHT22;30950;53.086;21.576;2023-07-22T02:24:53;17.30;99.90
45207;DHT22;30950;53.086;21.576;2023-07-22T02:27:21;17.30;99.90
45207;DHT22;30950;53.086;21.576;2023-07-22T02:29:49;17.20;99.90
45207;DHT22;30950;53.086;21.576;2023-07-22T02:32:17;17.10;99.90
45207;DHT22;30950;53.086;21.576;2023-07-22T02:34:44;17.10;99.90
45207;DHT22;30950;53.086;21.576;2023-07-22T02:37:12;17.00;99.90
45207;DHT22;30950;53.086;21.576;2023-07-22T02:39:39;17.00;99.90
45207;DHT22;30950;53.086;21.576;2023-07-22T02:42:07;16.90;99.90
45207;DHT22;30950;53.086;21.576;2023-07-22T02:44:35;16.90;99.90
45207;DHT22;30950;53.086;21.576;2023-07-22T02:47:03;16.90;99.90
45207;DHT22;30950;53.086;21.576;2023-07-22T02:49:31;16.90;99.90
45207;DHT22;30950;53.086;21.576;2023-07-22T02:51:58;16.80;99.90
45207;DHT22;30950;53.086;21.576;2023-07-22T02:54:26;16.90;99.90
45207;DHT22;30950;53.086;21.576;2023-07-22T02:56:53;16.80;99.90
45207;DHT22;30950;53.086;21.576;2023-07-22T02:59:21;16.80;99.90
45207;DHT22;30950;53.086;21.576;2023-07-22T03:01:48;16.70;99.90
45207;DHT22;30950;53.086;21.576;2023-07-22T03:04:15;16.60;99.90
45207;DHT22;30950;53.086;21.576;2023-07-22T03:06:43;16.50;99.90
45207;DHT22;30950;53.086;21.576;2023-07-22T03:09:10;16.40;99.90
45207;DHT22;30950;53.086;21.576;2023-07-22T03:11:38;16.20;99.90
45207;DHT22;30950;53.086;21.576;2023-07-22T03:14:05;16.00;99.90
45207;DHT22;30950;53.086;21.576;2023-07-22T03:16:33;15.90;99.90
45207;DHT22;30950;53.086;21.576;2023-07-22T03:19:00;15.70;99.90
45207;DHT22;30950;53.086;21.576;2023-07-22T03:21:28;15.60;99.90
45207;DHT22;30950;53.086;21.576;2023-07-22T03:23:56;15.40;99.90
45207;DHT22;30950;53.086;21.576;2023-07-22T03:26:24;15.30;99.90
45207;DHT22;30950;53.086;21.576;2023-07-22T03:28:51;15.20;99.90
45207;DHT22;30950;53.086;21.576;2023-07-22T03:31:19;15.10;99.90
45207;DHT22;30950;53.086;21.576;2023-07-22T03:33:46;15.10;99.90
45207;DHT22;30950;53.086;21.576;2023-07-22T03:36:15;15.00;99.90
45207;DHT22;30950;53.086;21.576;2023-07-22T03:38:43;15.00;99.90
45207;DHT22;30950;53.086;21.576;2023-07-22T03:41:10;15.00;99.90
45207;DHT22;30950;53.086;21.576;2023-07-22T03:43:38;15.00;99.90
45207;DHT22;30950;53.086;21.576;2023-07-22T03:46:05;15.00;99.90
45207;DHT22;30950;53.086;21.576;2023-07-22T03:48:33;15.00;99.90
45207;DHT22;30950;53.086;21.576;2023-07-22T03:51:00;15.00;99.90
45207;DHT22;30950;53.086;21.576;2023-07-22T03:53:46;15.00;99.90
45207;DHT22;30950;53.086;21.576;2023-07-22T03:56:14;15.00;99.90
45207;DHT22;30950;53.086;21.576;2023-07-22T03:58:41;15.00;99.90
45207;DHT22;30950;53.086;21.576;2023-07-22T04:01:12;15.00;99.90
45207;DHT22;30950;53.086;21.576;2023-07-22T04:03:45;14.90;99.90
45207;DHT22;30950;53.086;21.576;2023-07-22T04:06:13;14.90;99.90
45207;DHT22;30950;53.086;21.576;2023-07-22T04:08:40;15.00;99.90
45207;DHT22;30950;53.086;21.576;2023-07-22T04:11:08;14.90;99.90
45207;DHT22;30950;53.086;21.576;2023-07-22T04:13:35;15.00;99.90
45207;DHT22;30950;53.086;21.576;2023-07-22T04:16:03;15.00;99.90
45207;DHT22;30950;53.086;21.576;2023-07-22T04:18:30;15.00;99.90
45207;DHT22;30950;53.086;21.576;2023-07-22T04:21:01;15.00;99.90
45207;DHT22;30950;53.086;21.576;2023-07-22T04:23:29;15.00;99.90
45207;DHT22;30950;53.086;21.576;2023-07-22T04:25:57;15.00;99.90
45207;DHT22;30950;53.086;21.576;2023-07-22T04:28:24;15.00;99.90
45207;DHT22;30950;53.086;21.576;2023-07-22T04:30:59;15.10;99.90
45207;DHT22;30950;53.086;21.576;2023-07-22T04:33:27;15.00;99.90
45207;DHT22;30950;53.086;21.576;2023-07-22T04:35:59;15.10;99.90
45207;DHT22;30950;53.086;21.576;2023-07-22T04:38:27;15.10;99.90
45207;DHT22;30950;53.086;21.576;2023-07-22T04:40:55;15.10;99.90
45207;DHT22;30950;53.086;21.576;2023-07-22T04:43:23;15.20;99.90
45207;DHT22;30950;53.086;21.576;2023-07-22T04:45:50;15.10;99.90
45207;DHT22;30950;53.086;21.576;2023-07-22T04:48:20;15.20;99.90
45207;DHT22;30950;53.086;21.576;2023-07-22T04:50:48;15.20;99.90
45207;DHT22;30950;53.086;21.576;2023-07-22T04:53:17;15.20;99.90
45207;DHT22;30950;53.086;21.576;2023-07-22T04:55:45;15.30;99.90
45207;DHT22;30950;53.086;21.576;2023-07-22T04:58:13;15.30;99.90
45207;DHT22;30950;53.086;21.576;2023-07-22T05:00:40;15.30;99.90
45207;DHT22;30950;53.086;21.576;2023-07-22T05:03:09;15.30;99.90
45207;DHT22;30950;53.086;21.576;2023-07-22T05:05:38;15.40;99.90
45207;DHT22;30950;53.086;21.576;2023-07-22T05:08:05;15.40;99.90
45207;DHT22;30950;53.086;21.576;2023-07-22T05:10:39;15.40;99.90
45207;DHT22;30950;53.086;21.576;2023-07-22T05:13:06;15.40;99.90
45207;DHT22;30950;53.086;21.576;2023-07-22T05:15:34;15.40;99.90
45207;DHT22;30950;53.086;21.576;2023-07-22T05:18:01;15.40;99.90
45207;DHT22;30950;53.086;21.576;2023-07-22T05:20:29;15.50;99.90
45207;DHT22;30950;53.086;21.576;2023-07-22T05:22:56;15.50;99.90
45207;DHT22;30950;53.086;21.576;2023-07-22T05:25:24;15.60;99.90
45207;DHT22;30950;53.086;21.576;2023-07-22T05:27:51;15.60;99.90
45207;DHT22;30950;53.086;21.576;2023-07-22T05:30:19;15.70;99.90
45207;DHT22;30950;53.086;21.576;2023-07-22T05:33:01;15.70;99.90
45207;DHT22;30950;53.086;21.576;2023-07-22T05:35:29;15.80;99.90
45207;DHT22;30950;53.086;21.576;2023-07-22T05:37:57;15.90;99.90
45207;DHT22;30950;53.086;21.576;2023-07-22T05:40:24;15.90;99.90
45207;DHT22;30950;53.086;21.576;2023-07-22T05:42:51;16.00;99.90
45207;DHT22;30950;53.086;21.576;2023-07-22T05:45:19;16.00;99.90
45207;DHT22;30950;53.086;21.576;2023-07-22T05:47:46;16.10;99.90
45207;DHT22;30950;53.086;21.576;2023-07-22T05:50:14;16.10;99.90
45207;DHT22;30950;53.086;21.576;2023-07-22T05:52:41;16.10;99.90
45207;DHT22;30950;53.086;21.576;2023-07-22T05:55:10;16.20;99.90
45207;DHT22;30950;53.086;21.576;2023-07-22T05:57:37;16.30;99.90
45207;DHT22;30950;53.086;21.576;2023-07-22T06:00:05;16.40;99.90
45207;DHT22;30950;53.086;21.576;2023-07-22T06:02:39;16.40;99.90
45207;DHT22;30950;53.086;21.576;2023-07-22T06:05:11;16.40;99.90
45207;DHT22;30950;53.086;21.576;2023-07-22T06:07:38;16.50;99.90
45207;DHT22;30950;53.086;21.576;2023-07-22T06:10:07;16.50;99.90
45207;DHT22;30950;53.086;21.576;2023-07-22T06:12:35;16.50;99.90
45207;DHT22;30950;53.086;21.576;2023-07-22T06:15:03;16.50;99.90
45207;DHT22;30950;53.086;21.576;2023-07-22T06:17:30;16.40;99.90
45207;DHT22;30950;53.086;21.576;2023-07-22T06:19:58;16.30;99.90
45207;DHT22;30950;53.086;21.576;2023-07-22T06:22:25;16.30;99.90
45207;DHT22;30950;53.086;21.576;2023-07-22T06:24:53;16.20;99.90
45207;DHT22;30950;53.086;21.576;2023-07-22T06:27:20;16.10;99.90
45207;DHT22;30950;53.086;21.576;2023-07-22T06:29:47;16.10;99.90
45207;DHT22;30950;53.086;21.576;2023-07-22T06:32:15;16.00;99.90
45207;DHT22;30950;53.086;21.576;2023-07-22T06:34:42;16.00;99.90
45207;DHT22;30950;53.086;21.576;2023-07-22T06:37:09;16.00;99.90
45207;DHT22;30950;53.086;21.576;2023-07-22T06:39:37;16.00;99.90
45207;DHT22;30950;53.086;21.576;2023-07-22T06:42:05;16.00;99.90
45207;DHT22;30950;53.086;21.576;2023-07-22T06:44:32;16.00;99.90
45207;DHT22;30950;53.086;21.576;2023-07-22T06:47:00;15.90;99.90
45207;DHT22;30950;53.086;21.576;2023-07-22T06:49:27;15.90;99.90
45207;DHT22;30950;53.086;21.576;2023-07-22T06:51:55;15.90;99.90
45207;DHT22;30950;53.086;21.576;2023-07-22T06:54:22;15.90;99.90
45207;DHT22;30950;53.086;21.576;2023-07-22T06:56:49;16.00;99.90
45207;DHT22;30950;53.086;21.576;2023-07-22T06:59:17;16.00;99.90
45207;DHT22;30950;53.086;21.576;2023-07-22T07:01:44;16.10;99.90
45207;DHT22;30950;53.086;21.576;2023-07-22T07:04:12;16.20;99.90
45207;DHT22;30950;53.086;21.576;2023-07-22T07:06:39;16.30;99.90
45207;DHT22;30950;53.086;21.576;2023-07-22T07:09:07;16.30;99.90
45207;DHT22;30950;53.086;21.576;2023-07-22T07:11:38;16.40;99.90
45207;DHT22;30950;53.086;21.576;2023-07-22T07:14:06;16.50;99.90
45207;DHT22;30950;53.086;21.576;2023-07-22T07:16:33;16.60;99.90
45207;DHT22;30950;53.086;21.576;2023-07-22T07:19:01;16.70;99.90
45207;DHT22;30950;53.086;21.576;2023-07-22T07:21:29;16.80;99.90
45207;DHT22;30950;53.086;21.576;2023-07-22T07:23:57;16.90;99.90
45207;DHT22;30950;53.086;21.576;2023-07-22T07:26:24;16.90;99.90
45207;DHT22;30950;53.086;21.576;2023-07-22T07:28:52;17.00;99.90
45207;DHT22;30950;53.086;21.576;2023-07-22T07:31:20;17.00;99.90
45207;DHT22;30950;53.086;21.576;2023-07-22T07:33:48;17.10;99.90
45207;DHT22;30950;53.086;21.576;2023-07-22T07:36:15;17.20;99.90
45207;DHT22;30950;53.086;21.576;2023-07-22T07:38:44;17.20;99.90
45207;DHT22;30950;53.086;21.576;2023-07-22T07:41:14;17.30;99.90
45207;DHT22;30950;53.086;21.576;2023-07-22T07:43:42;17.40;99.90
45207;DHT22;30950;53.086;21.576;2023-07-22T07:46:27;17.40;99.90
45207;DHT22;30950;53.086;21.576;2023-07-22T07:49:00;17.40;99.90
45207;DHT22;30950;53.086;21.576;2023-07-22T07:51:30;17.40;99.90
45207;DHT22;30950;53.086;21.576;2023-07-22T07:53:59;17.50;99.90
45207;DHT22;30950;53.086;21.576;2023-07-22T07:56:27;17.60;99.90
45207;DHT22;30950;53.086;21.576;2023-07-22T07:58:56;17.70;99.90
45207;DHT22;30950;53.086;21.576;2023-07-22T08:01:23;17.80;99.90
45207;DHT22;30950;53.086;21.576;2023-07-22T08:03:54;17.80;99.90
45207;DHT22;30950;53.086;21.576;2023-07-22T08:06:22;17.90;99.90
45207;DHT22;30950;53.086;21.576;2023-07-22T08:08:52;17.90;99.90
45207;DHT22;30950;53.086;21.576;2023-07-22T08:11:20;17.90;99.90
45207;DHT22;30950;53.086;21.576;2023-07-22T08:13:48;17.90;99.90
45207;DHT22;30950;53.086;21.576;2023-07-22T08:16:15;17.90;99.90
45207;DHT22;30950;53.086;21.576;2023-07-22T08:18:43;17.90;99.90
45207;DHT22;30950;53.086;21.576;2023-07-22T08:21:10;17.90;99.90
45207;DHT22;30950;53.086;21.576;2023-07-22T08:23:39;17.90;99.90
45207;DHT22;30950;53.086;21.576;2023-07-22T08:26:06;17.90;99.90
45207;DHT22;30950;53.086;21.576;2023-07-22T08:28:34;17.90;99.90
45207;DHT22;30950;53.086;21.576;2023-07-22T08:31:01;18.00;99.90
45207;DHT22;30950;53.086;21.576;2023-07-22T08:33:29;18.10;99.90
45207;DHT22;30950;53.086;21.576;2023-07-22T08:36:08;18.20;99.90
45207;DHT22;30950;53.086;21.576;2023-07-22T08:38:36;18.20;99.90
45207;DHT22;30950;53.086;21.576;2023-07-22T08:41:04;18.20;99.90
45207;DHT22;30950;53.086;21.576;2023-07-22T08:43:34;18.20;99.90
45207;DHT22;30950;53.086;21.576;2023-07-22T08:46:06;18.30;99.90
45207;DHT22;30950;53.086;21.576;2023-07-22T08:48:36;18.40;99.90
45207;DHT22;30950;53.086;21.576;2023-07-22T08:51:10;18.50;99.90
45207;DHT22;30950;53.086;21.576;2023-07-22T08:53:40;18.50;99.90
45207;DHT22;30950;53.086;21.576;2023-07-22T08:56:11;18.70;99.90
45207;DHT22;30950;53.086;21.576;2023-07-22T08:58:41;18.70;99.90
45207;DHT22;30950;53.086;21.576;2023-07-22T09:01:10;18.70;99.90
45207;DHT22;30950;53.086;21.576;2023-07-22T09:03:39;18.70;99.90
45207;DHT22;30950;53.086;21.576;2023-07-22T09:06:08;18.80;99.90
45207;DHT22;30950;53.086;21.576;2023-07-22T09:08:36;18.90;99.90
45207;DHT22;30950;53.086;21.576;2023-07-22T09:11:06;19.00;99.90
45207;DHT22;30950;53.086;21.576;2023-07-22T09:13:35;19.10;99.90
45207;DHT22;30950;53.086;21.576;2023-07-22T09:16:03;19.10;99.90
45207;DHT22;30950;53.086;21.576;2023-07-22T09:18:33;19.20;99.90
45207;DHT22;30950;53.086;21.576;2023-07-22T09:21:01;19.30;99.90
45207;DHT22;30950;53.086;21.576;2023-07-22T09:23:36;19.40;99.90
45207;DHT22;30950;53.086;21.576;2023-07-22T09:26:14;19.40;99.90
45207;DHT22;30950;53.086;21.576;2023-07-22T09:28:56;19.40;99.90
45207;DHT22;30950;53.086;21.576;2023-07-22T09:31:25;19.30;99.90
45207;DHT22;30950;53.086;21.576;2023-07-22T09:33:54;19.30;99.90
45207;DHT22;30950;53.086;21.576;2023-07-22T09:36:21;19.30;99.90
45207;DHT22;30950;53.086;21.576;2023-07-22T09:39:02;19.30;99.90
45207;DHT22;30950;53.086;21.576;2023-07-22T09:41:31;19.40;99.90
45207;DHT22;30950;53.086;21.576;2023-07-22T09:44:03;19.50;99.90
45207;DHT22;30950;53.086;21.576;2023-07-22T09:46:31;19.60;99.90
45207;DHT22;30950;53.086;21.576;2023-07-22T09:49:04;19.70;99.90
45207;DHT22;30950;53.086;21.576;2023-07-22T09:51:37;19.80;99.90
45207;DHT22;30950;53.086;21.576;2023-07-22T09:54:26;19.90;99.90
45207;DHT22;30950;53.086;21.576;2023-07-22T09:56:56;20.00;99.90
45207;DHT22;30950;53.086;21.576;2023-07-22T09:59:28;20.20;99.90
45207;DHT22;30950;53.086;21.576;2023-07-22T10:01:57;20.30;99.90
45207;DHT22;30950;53.086;21.576;2023-07-22T10:04:33;20.40;99.90
45207;DHT22;30950;53.086;21.576;2023-07-22T10:07:03;20.40;99.90
45207;DHT22;30950;53.086;21.576;2023-07-22T10:09:35;20.40;99.90
45207;DHT22;30950;53.086;21.576;2023-07-22T10:12:05;20.40;99.90
45207;DHT22;30950;53.086;21.576;2023-07-22T10:14:34;20.40;99.90
45207;DHT22;30950;53.086;21.576;2023-07-22T10:17:05;20.50;99.90
45207;DHT22;30950;53.086;21.576;2023-07-22T10:19:34;20.60;99.90
45207;DHT22;30950;53.086;21.576;2023-07-22T10:22:02;20.70;99.90
45207;DHT22;30950;53.086;21.576;2023-07-22T10:24:31;20.70;99.90
45207;DHT22;30950;53.086;21.576;2023-07-22T10:27:00;20.80;99.90
45207;DHT22;30950;53.086;21.576;2023-07-22T10:29:28;20.80;99.90
45207;DHT22;30950;53.086;21.576;2023-07-22T10:31:56;20.80;99.90
45207;DHT22;30950;53.086;21.576;2023-07-22T10:34:24;20.90;99.90
45207;DHT22;30950;53.086;21.576;2023-07-22T10:36:51;20.80;99.90
45207;DHT22;30950;53.086;21.576;2023-07-22T10:39:27;20.80;99.90
45207;DHT22;30950;53.086;21.576;2023-07-22T10:42:05;20.90;99.90
45207;DHT22;30950;53.086;21.576;2023-07-22T10:44:36;20.90;99.90
45207;DHT22;30950;53.086;21.576;2023-07-22T10:47:05;21.00;99.90
45207;DHT22;30950;53.086;21.576;2023-07-22T10:49:47;21.00;99.90
45207;DHT22;30950;53.086;21.576;2023-07-22T10:52:15;21.00;99.90
45207;DHT22;30950;53.086;21.576;2023-07-22T10:55:02;21.20;99.90
45207;DHT22;30950;53.086;21.576;2023-07-22T10:57:30;21.30;99.90
45207;DHT22;30950;53.086;21.576;2023-07-22T10:59:57;21.30;99.90
45207;DHT22;30950;53.086;21.576;2023-07-22T11:02:25;21.40;99.90
45207;DHT22;30950;53.086;21.576;2023-07-22T11:04:56;21.50;99.90
45207;DHT22;30950;53.086;21.576;2023-07-22T11:07:33;21.60;98.60
45207;DHT22;30950;53.086;21.576;2023-07-22T11:10:19;21.90;96.90
45207;DHT22;30950;53.086;21.576;2023-07-22T11:12:48;22.10;94.80
45207;DHT22;30950;53.086;21.576;2023-07-22T11:15:16;22.20;95.80
45207;DHT22;30950;53.086;21.576;2023-07-22T11:17:45;22.20;94.50
45207;DHT22;30950;53.086;21.576;2023-07-22T11:20:12;22.20;92.90
45207;DHT22;30950;53.086;21.576;2023-07-22T11:22:40;22.20;91.20
45207;DHT22;30950;53.086;21.576;2023-07-22T11:25:08;22.20;90.90
45207;DHT22;30950;53.086;21.576;2023-07-22T11:27:36;22.20;91.10
45207;DHT22;30950;53.086;21.576;2023-07-22T11:30:04;22.30;90.50
45207;DHT22;30950;53.086;21.576;2023-07-22T11:32:32;22.40;90.20
45207;DHT22;30950;53.086;21.576;2023-07-22T11:35:00;22.50;87.00
45207;DHT22;30950;53.086;21.576;2023-07-22T11:37:28;22.40;81.90
45207;DHT22;30950;53.086;21.576;2023-07-22T11:40:00;22.30;82.90
45207;DHT22;30950;53.086;21.576;2023-07-22T11:42:28;22.30;83.20
45207;DHT22;30950;53.086;21.576;2023-07-22T11:44:56;22.10;84.10
45207;DHT22;30950;53.086;21.576;2023-07-22T11:47:29;22.20;84.70
45207;DHT22;30950;53.086;21.576;2023-07-22T11:49:58;22.10;83.60
45207;DHT22;30950;53.086;21.576;2023-07-22T11:52:25;22.10;85.80
45207;DHT22;30950;53.086;21.576;2023-07-22T11:54:53;22.20;85.70
45207;DHT22;30950;53.086;21.576;2023-07-22T11:57:22;22.20;86.30
45207;DHT22;30950;53.086;21.576;2023-07-22T11:59:51;22.30;86.50
45207;DHT22;30950;53.086;21.576;2023-07-22T12:02:24;22.30;85.60
45207;DHT22;30950;53.086;21.576;2023-07-22T12:04:53;22.50;85.50
45207;DHT22;30950;53.086;21.576;2023-07-22T12:07:24;22.60;86.30
45207;DHT22;30950;53.086;21.576;2023-07-22T12:09:54;22.70;85.60
45207;DHT22;30950;53.086;21.576;2023-07-22T12:12:40;22.80;85.80
45207;DHT22;30950;53.086;21.576;2023-07-22T12:15:20;23.00;82.90
45207;DHT22;30950;53.086;21.576;2023-07-22T12:20:26;23.40;79.00
45207;DHT22;30950;53.086;21.576;2023-07-22T12:22:55;23.50;79.80
45207;DHT22;30950;53.086;21.576;2023-07-22T12:25:23;23.50;79.20
45207;DHT22;30950;53.086;21.576;2023-07-22T12:27:51;23.50;77.40
45207;DHT22;30950;53.086;21.576;2023-07-22T12:30:18;23.40;77.50
45207;DHT22;30950;53.086;21.576;2023-07-22T12:32:47;23.30;77.60
45207;DHT22;30950;53.086;21.576;2023-07-22T12:35:15;23.30;78.00
45207;DHT22;30950;53.086;21.576;2023-07-22T12:37:43;23.00;78.10
45207;DHT22;30950;53.086;21.576;2023-07-22T12:40:11;22.80;78.70
45207;DHT22;30950;53.086;21.576;2023-07-22T12:42:40;22.70;79.10
45207;DHT22;30950;53.086;21.576;2023-07-22T12:45:09;22.70;80.30
45207;DHT22;30950;53.086;21.576;2023-07-22T12:47:36;22.90;81.80
45207;DHT22;30950;53.086;21.576;2023-07-22T12:50:06;23.30;81.60
45207;DHT22;30950;53.086;21.576;2023-07-22T12:52:37;23.70;81.50
45207;DHT22;30950;53.086;21.576;2023-07-22T12:55:05;23.90;79.00
45207;DHT22;30950;53.086;21.576;2023-07-22T12:57:32;24.20;77.40
45207;DHT22;30950;53.086;21.576;2023-07-22T13:00:00;24.70;77.30
45207;DHT22;30950;53.086;21.576;2023-07-22T13:02:28;24.90;73.20
45207;DHT22;30950;53.086;21.576;2023-07-22T13:04:55;24.90;72.00
45207;DHT22;30950;53.086;21.576;2023-07-22T13:07:23;24.60;70.90
45207;DHT22;30950;53.086;21.576;2023-07-22T13:09:50;24.40;72.00
45207;DHT22;30950;53.086;21.576;2023-07-22T13:12:20;24.10;72.00
45207;DHT22;30950;53.086;21.576;2023-07-22T13:14:48;24.00;71.70
45207;DHT22;30950;53.086;21.576;2023-07-22T13:17:15;24.10;72.00
45207;DHT22;30950;53.086;21.576;2023-07-22T13:19:42;24.10;71.40
45207;DHT22;30950;53.086;21.576;2023-07-22T13:22:10;24.10;71.10
45207;DHT22;30950;53.086;21.576;2023-07-22T13:24:37;24.00;70.70
45207;DHT22;30950;53.086;21.576;2023-07-22T13:27:06;23.90;71.20
45207;DHT22;30950;53.086;21.576;2023-07-22T13:29:33;23.80;71.80
45207;DHT22;30950;53.086;21.576;2023-07-22T13:32:00;23.70;71.40
45207;DHT22;30950;53.086;21.576;2023-07-22T13:34:28;23.60;71.50
45207;DHT22;30950;53.086;21.576;2023-07-22T13:36:58;23.50;70.00
45207;DHT22;30950;53.086;21.576;2023-07-22T13:39:25;23.50;70.70
45207;DHT22;30950;53.086;21.576;2023-07-22T13:41:52;23.40;70.50
45207;DHT22;30950;53.086;21.576;2023-07-22T13:44:20;23.50;70.50
45207;DHT22;30950;53.086;21.576;2023-07-22T13:46:47;23.40;70.30
45207;DHT22;30950;53.086;21.576;2023-07-22T13:49:15;23.40;70.30
45207;DHT22;30950;53.086;21.576;2023-07-22T13:51:43;23.70;71.50
45207;DHT22;30950;53.086;21.576;2023-07-22T13:54:11;23.90;70.70
45207;DHT22;30950;53.086;21.576;2023-07-22T13:56:38;24.00;68.80
45207;DHT22;30950;53.086;21.576;2023-07-22T13:59:06;24.10;68.70
45207;DHT22;30950;53.086;21.576;2023-07-22T14:01:34;24.20;68.20
45207;DHT22;30950;53.086;21.576;2023-07-22T14:04:02;24.40;67.20
45207;DHT22;30950;53.086;21.576;2023-07-22T14:06:30;24.30;65.00
45207;DHT22;30950;53.086;21.576;2023-07-22T14:09:01;24.10;65.40
45207;DHT22;30950;53.086;21.576;2023-07-22T14:11:28;23.90;64.70
45207;DHT22;30950;53.086;21.576;2023-07-22T14:13:56;23.70;65.40
45207;DHT22;30950;53.086;21.576;2023-07-22T14:16:24;23.60;65.90
45207;DHT22;30950;53.086;21.576;2023-07-22T14:18:51;23.40;65.80
45207;DHT22;30950;53.086;21.576;2023-07-22T14:21:19;23.20;65.50
45207;DHT22;30950;53.086;21.576;2023-07-22T14:23:48;23.00;66.20
45207;DHT22;30950;53.086;21.576;2023-07-22T14:26:15;22.80;66.30
45207;DHT22;30950;53.086;21.576;2023-07-22T14:28:43;22.70;67.10
45207;DHT22;30950;53.086;21.576;2023-07-22T14:31:11;22.60;67.90
45207;DHT22;30950;53.086;21.576;2023-07-22T14:33:39;22.50;68.80
45207;DHT22;30950;53.086;21.576;2023-07-22T14:36:08;22.20;69.20
45207;DHT22;30950;53.086;21.576;2023-07-22T14:38:36;22.10;69.60
45207;DHT22;30950;53.086;21.576;2023-07-22T14:41:03;22.00;69.90
45207;DHT22;30950;53.086;21.576;2023-07-22T14:43:30;22.00;70.20
45207;DHT22;30950;53.086;21.576;2023-07-22T14:45:58;22.00;70.20
45207;DHT22;30950;53.086;21.576;2023-07-22T14:48:25;21.90;70.10
45207;DHT22;30950;53.086;21.576;2023-07-22T14:50:53;21.90;69.90
45207;DHT22;30950;53.086;21.576;2023-07-22T14:53:20;21.90;70.20
45207;DHT22;30950;53.086;21.576;2023-07-22T14:55:47;22.00;70.60
45207;DHT22;30950;53.086;21.576;2023-07-22T14:58:18;22.10;71.20
45207;DHT22;30950;53.086;21.576;2023-07-22T15:00:45;22.60;71.60
45207;DHT22;30950;53.086;21.576;2023-07-22T15:03:13;23.20;70.60
45207;DHT22;30950;53.086;21.576;2023-07-22T15:05:41;23.70;68.20
45207;DHT22;30950;53.086;21.576;2023-07-22T15:08:09;24.30;67.60
45207;DHT22;30950;53.086;21.576;2023-07-22T15:10:36;24.50;64.70
45207;DHT22;30950;53.086;21.576;2023-07-22T15:13:05;24.60;64.50
45207;DHT22;30950;53.086;21.576;2023-07-22T15:15:32;24.60;64.60
45207;DHT22;30950;53.086;21.576;2023-07-22T15:18:00;24.60;64.00
45207;DHT22;30950;53.086;21.576;2023-07-22T15:20:27;24.60;63.90
45207;DHT22;30950;53.086;21.576;2023-07-22T15:22:55;24.60;64.00
45207;DHT22;30950;53.086;21.576;2023-07-22T15:25:22;24.50;64.40
45207;DHT22;30950;53.086;21.576;2023-07-22T15:27:51;24.20;64.60